createdAt,value
2022-08-17T00:01:03.199Z,12856.53711
2022-08-17T00:16:06.697Z,12251.04785
2022-08-17T00:31:08.898Z,6593.53076
2022-08-17T00:46:11.096Z,13627.76074
2022-08-17T01:01:21.294Z,7140.6377
2022-08-17T01:16:24.176Z,3435.18994
2022-08-17T01:31:26.401Z,1605.53699
2022-08-17T01:46:28.574Z,1145.06335
2022-08-17T02:01:30.837Z,936.01392
2022-08-17T02:16:36.624Z,555.58173
2022-08-17T02:31:39.781Z,428.45709
2022-08-17T02:46:41.970Z,263.66589
2022-08-17T03:01:44.270Z,91.3414
2022-08-17T03:16:46.713Z,21.65827
2022-08-17T03:31:49.775Z,1.88333
2022-08-17T03:46:52.116Z,0
2022-08-17T04:01:54.473Z,0
2022-08-17T04:16:56.727Z,0
2022-08-17T04:31:58.969Z,0
2022-08-17T04:47:01.168Z,0
2022-08-17T05:02:03.511Z,0
2022-08-17T05:17:07.336Z,0
2022-08-17T05:32:38.288Z,0
2022-08-17T05:47:43.884Z,0
2022-08-17T06:02:47.979Z,0
2022-08-17T06:17:50.456Z,0
2022-08-17T06:32:52.897Z,0
2022-08-17T06:47:55.154Z,0
2022-08-17T07:02:57.557Z,0
2022-08-17T07:18:00.121Z,0
2022-08-17T07:33:02.635Z,0
2022-08-17T07:48:04.853Z,0
2022-08-17T08:03:07.497Z,0
2022-08-17T08:18:09.865Z,0
2022-08-17T08:33:12.151Z,0
2022-08-17T08:48:23.111Z,0
2022-08-17T09:04:10.935Z,0
2022-08-17T09:19:22.269Z,0
2022-08-17T09:34:28.158Z,0
2022-08-17T09:49:34.430Z,0
2022-08-17T10:04:36.655Z,0
2022-08-17T10:19:39.990Z,0
2022-08-17T10:34:46.664Z,0
2022-08-17T10:49:48.873Z,0
2022-08-17T11:04:51.073Z,0
2022-08-17T11:19:53.285Z,0
2022-08-17T11:34:55.466Z,0
2022-08-17T11:49:57.702Z,0
2022-08-17T12:04:59.960Z,0
2022-08-17T12:20:03.035Z,2.82499
2022-08-17T12:35:06.887Z,24.48326
2022-08-17T12:50:29.824Z,99.81638
2022-08-17T13:05:32.479Z,234.47432
2022-08-17T13:20:34.712Z,386.08221
2022-08-17T13:35:39.947Z,554.64008
2022-08-17T13:50:42.793Z,1683.69507
2022-08-17T14:05:44.971Z,7597.34473
2022-08-17T14:20:47.202Z,5924.00781
2022-08-17T14:35:49.416Z,7108.62109
2022-08-17T14:50:51.656Z,4044.44653
2022-08-17T15:05:53.869Z,4096.23828
2022-08-17T15:20:56.109Z,5198.92627
2022-08-17T15:35:58.332Z,7119.9209
2022-08-17T15:51:00.648Z,6623.66406
2022-08-17T16:06:02.900Z,7365.69531
2022-08-17T16:21:05.285Z,7207.49561
2022-08-17T16:36:07.502Z,6995.62109
2022-08-17T16:51:09.710Z,7127.4541
2022-08-17T17:06:12.087Z,7011.62939
2022-08-17T17:21:14.334Z,6673.57227
2022-08-17T17:36:16.589Z,6635.90576
2022-08-17T17:52:05.247Z,6458.87305
2022-08-17T18:07:13.635Z,6684.87207
2022-08-17T18:22:15.870Z,6721.59717
2022-08-17T18:37:19.512Z,6962.66309
2022-08-17T18:52:21.790Z,7066.24609
2022-08-17T19:07:24.048Z,7134.9873
2022-08-17T19:22:28.774Z,7260.229
2022-08-17T19:37:31.392Z,7443.85352
2022-08-17T19:52:33.625Z,7631.24463
2022-08-17T20:07:35.888Z,7671.73584
2022-08-17T20:22:50.398Z,7608.64453
2022-08-17T20:37:54.756Z,7757.42725
2022-08-17T20:52:56.952Z,7913.74365
2022-08-17T21:07:59.420Z,7699.04443
2022-08-17T21:23:01.724Z,7441.02832
2022-08-17T21:38:03.966Z,7193.37061
2022-08-17T21:53:06.367Z,7344.97852
2022-08-17T22:08:08.570Z,7698.10254
2022-08-17T22:23:19.110Z,8438.25
2022-08-17T22:38:21.311Z,9286.68945
2022-08-17T22:53:23.570Z,9878.99609
2022-08-17T23:08:25.847Z,10552.28613
2022-08-17T23:23:28.053Z,11339.5166
2022-08-17T23:38:30.297Z,12199.25586
2022-08-17T23:53:32.637Z,12647.48828
